Nearby METAR Reports

 

KMLP - Mullan Pass, Idaho, USA
Distance from station: NE 41mi, 66km
Updated: Sun, 11-Apr-2021 1:53am PDT
Clear
Clear
 Wind from NW
Wind: NW 5 mph , 7 km/h
Temperature: 16°F , -9°C
Wind Chill: 8°F , -13°C
Dew Point: 10°F , -12°C
Humidity: 79%
Barometer: 30.01 inHg , 1016.3 hPa
Clouds: Clear
Visibility: 10 miles , 16 km
2021/04/11 08:53 KMLP 110853Z AUTO 31004KT 10SM CLR M09/M12 A3001 RMK AO2 SLP220 T10891122 51006
KPUW - Pullman/Moscow, Washington, USA
Distance from station: SW 42mi, 68km
Updated: Sun, 11-Apr-2021 1:53am PDT
Clear
Clear
 Wind from E
Wind: E 5 mph , 7 km/h
Temperature: 27°F , -3°C
Wind Chill: 21°F , -6°C
Dew Point: 16°F , -9°C
Humidity: 64%
Barometer: 30.18 inHg , 1022 hPa
Clouds: Clear
Visibility: 10 miles , 16 km
2021/04/11 08:53 KPUW 110853Z AUTO 09004KT 10SM CLR M03/M09 A3018 RMK AO2 SLP239 T10281089 50004
 
KCOE - Coeur D'alene, Idaho, USA
Distance from station: NNW 49mi, 79km
Updated: Sun, 11-Apr-2021 1:56am PDT
Clear
Clear
 Wind from SSE
Wind: SSE 3 mph , 6 km/h
Temperature: 25°F , -4°C
Dew Point: 21°F , -6°C
Humidity: 86%
Barometer: 30.15 inHg , 1021 hPa
Clouds: Clear
Visibility: 10 miles , 16 km
2021/04/11 08:56 KCOE 110856Z AUTO 16003KT 10SM CLR M04/M06 A3015 RMK AO2 SLP248 T10441061 51010 FZRANO
KSFF - Spokane/Felts, Washington, USA
Distance from station: NW 59mi, 94km
Updated: Sun, 11-Apr-2021 1:53am PDT
Clear
Clear
 Wind from calm
Wind: Calm
Temperature: 28°F , -2°C
Dew Point: 19°F , -7°C
Humidity: 69%
Barometer: 30.17 inHg , 1021.7 hPa
Clouds: Clear
Visibility: 10 miles , 16 km
2021/04/11 08:53 KSFF 110853Z AUTO 00000KT 10SM CLR M02/M07 A3017 RMK AO2 SLP229 T10171072 51009
 
KLWS - Lewiston, Idaho, USA
Distance from station: SSW 59mi, 96km
Updated: Sun, 11-Apr-2021 1:56am PDT
Clear
Clear
 Wind from S
Wind: S 3 mph , 6 km/h
Temperature: 36°F , 2°C
Dew Point: 12°F , -11°C
Humidity: 38%
Barometer: 30.21 inHg , 1023 hPa
Clouds: Clear
Visibility: 10 miles , 16 km
2021/04/11 08:56 KLWS 110856Z AUTO 19003KT 10SM CLR 02/M11 A3021 RMK AO2 SLP239 T00171106 51009
KGEG - Spokane/Metro, Washington, USA
Distance from station: WNW 64mi, 103km
Updated: Sun, 11-Apr-2021 1:53am PDT
Clear
Clear
 Wind from SW
Wind: SW 10 mph , 17 km/h
Temperature: 27°F , -3°C
Wind Chill: 18°F , -8°C
Dew Point: 12°F , -11°C
Humidity: 54%
Barometer: 30.15 inHg , 1021 hPa
Clouds: Clear
Visibility: 10 miles , 16 km
2021/04/11 08:53 KGEG 110853Z 23009KT 10SM CLR M03/M11 A3015 RMK AO2 SLP227 T10281111 51008 $
 
KSKA - Fairchild Afb, Washington, USA
Distance from station: WNW 68mi, 110km
Updated: Sun, 11-Apr-2021 1:58am PDT
Clear
Clear
 Wind from W
Wind: W 7 mph , 11 km/h
Temperature: 23°F , -5°C
Wind Chill: 15°F , -9°C
Dew Point: 10°F , -12°C
Humidity: 58%
Barometer: 30.14 inHg , 1020.7 hPa
Clouds: Clear
Visibility: 10 miles , 16 km
2021/04/11 08:58 KSKA 110858Z AUTO 27006KT 10SM CLR M05/M12 A3014 RMK AO2 SLP228 T10521116 51006 $